createdAt,value
2024-03-30T00:00:26.003Z,4.42
2024-03-30T00:01:23.963Z,3.94
2024-03-30T00:02:23.993Z,3.68
2024-03-30T00:03:24.015Z,3.89
2024-03-30T00:04:24.011Z,4.51
2024-03-30T00:05:24.001Z,4.25
2024-03-30T00:06:24.004Z,3.90
2024-03-30T00:07:24.019Z,4.25
2024-03-30T00:08:24.010Z,4.73
2024-03-30T00:09:23.997Z,4.06
2024-03-30T00:10:24.004Z,3.33
2024-03-30T00:11:24.005Z,3.48
2024-03-30T00:12:23.985Z,3.62
2024-03-30T00:13:24.033Z,4.23
2024-03-30T00:14:24.044Z,3.88
2024-03-30T00:15:24.050Z,4.31
2024-03-30T00:16:24.025Z,4.11
2024-03-30T00:17:24.047Z,4.12
2024-03-30T00:18:24.040Z,4.11
2024-03-30T00:19:24.052Z,3.84
2024-03-30T00:20:24.058Z,3.98
2024-03-30T00:21:23.970Z,4.71
2024-03-30T00:22:24.034Z,4.37
2024-03-30T00:23:23.992Z,4.26
2024-03-30T00:24:24.005Z,4.18
2024-03-30T00:25:24.804Z,4.67
2024-03-30T00:26:24.105Z,4.24
2024-03-30T00:27:24.344Z,4.00
2024-03-30T00:28:24.071Z,4.04
2024-03-30T00:29:24.068Z,3.57
2024-03-30T00:30:24.088Z,3.69
2024-03-30T00:31:24.058Z,3.67
2024-03-30T00:32:24.061Z,4.08
2024-03-30T00:33:24.084Z,4.34
2024-03-30T00:34:24.032Z,4.31
2024-03-30T00:35:24.137Z,3.62
2024-03-30T00:36:24.116Z,4.38
2024-03-30T00:37:24.167Z,4.15
2024-03-30T00:38:24.142Z,4.36
2024-03-30T00:39:24.099Z,3.92
2024-03-30T00:40:24.175Z,3.75
2024-03-30T00:41:24.163Z,4.26
2024-03-30T00:42:24.148Z,3.88
2024-03-30T00:43:24.022Z,4.23
2024-03-30T00:44:24.159Z,4.26
2024-03-30T00:45:24.032Z,4.86
2024-03-30T00:46:24.046Z,3.98
2024-03-30T00:47:26.527Z,4.39
2024-03-30T00:48:25.058Z,4.32
2024-03-30T00:49:24.044Z,3.55
2024-03-30T00:50:24.051Z,3.71
2024-03-30T00:51:24.059Z,3.68
2024-03-30T00:52:24.087Z,3.98
2024-03-30T00:53:24.802Z,3.81
2024-03-30T00:54:24.261Z,4.37
2024-03-30T00:55:24.248Z,4.66
2024-03-30T00:56:24.315Z,4.34
2024-03-30T00:57:24.327Z,4.51
2024-03-30T00:58:24.332Z,4.40
2024-03-30T00:59:24.315Z,4.54
2024-03-30T01:00:24.403Z,4.78
2024-03-30T01:01:24.370Z,4.51
2024-03-30T01:02:24.464Z,4.83
2024-03-30T01:03:24.438Z,4.68
2024-03-30T01:04:24.452Z,4.60
2024-03-30T01:05:24.521Z,4.14
2024-03-30T01:06:24.483Z,3.77
2024-03-30T01:07:24.576Z,3.60
2024-03-30T01:08:24.640Z,4.26
2024-03-30T01:09:24.591Z,4.22
2024-03-30T01:10:24.666Z,3.87
2024-03-30T01:11:24.635Z,3.68
2024-03-30T01:12:24.736Z,4.15
2024-03-30T01:13:24.677Z,4.34
2024-03-30T01:14:24.727Z,4.73
2024-03-30T01:15:24.954Z,4.38
2024-03-30T01:16:25.247Z,4.09
2024-03-30T01:17:25.700Z,4.22
2024-03-30T01:18:24.916Z,4.34
2024-03-30T01:19:24.939Z,4.29
2024-03-30T01:20:24.949Z,4.78
2024-03-30T01:21:25.012Z,4.18
2024-03-30T01:22:25.021Z,3.71
2024-03-30T01:23:25.117Z,4.27
2024-03-30T01:24:25.128Z,3.86
2024-03-30T01:25:25.095Z,4.31
2024-03-30T01:26:25.174Z,4.27
2024-03-30T01:27:25.140Z,4.03
2024-03-30T01:28:25.188Z,3.46
2024-03-30T01:29:25.202Z,3.91
2024-03-30T01:30:25.355Z,3.84
2024-03-30T01:31:25.413Z,4.62
2024-03-30T01:32:25.425Z,3.56
2024-03-30T01:33:25.491Z,3.92
2024-03-30T01:34:25.484Z,4.08
2024-03-30T01:35:25.486Z,3.64
2024-03-30T01:36:25.494Z,4.52
2024-03-30T01:37:25.609Z,4.81
2024-03-30T01:38:25.546Z,4.25
2024-03-30T01:39:25.616Z,3.61
2024-03-30T01:40:25.674Z,3.85
2024-03-30T01:41:25.709Z,3.81
2024-03-30T01:42:25.735Z,3.99
2024-03-30T01:43:25.716Z,4.12
2024-03-30T01:44:25.762Z,4.17
2024-03-30T01:45:25.784Z,3.37
2024-03-30T01:46:25.836Z,4.23
2024-03-30T01:47:25.822Z,3.55
2024-03-30T01:48:25.883Z,3.68
2024-03-30T01:49:25.900Z,3.50
2024-03-30T01:50:25.921Z,3.10
2024-03-30T01:51:25.952Z,4.05
2024-03-30T01:52:26.009Z,3.75
2024-03-30T01:53:26.099Z,3.48
2024-03-30T01:54:26.124Z,3.01
2024-03-30T01:55:26.061Z,3.15
2024-03-30T01:56:26.055Z,3.50
2024-03-30T01:57:26.162Z,4.62
2024-03-30T01:58:26.184Z,3.62
2024-03-30T01:59:26.217Z,3.68
2024-03-30T02:00:26.244Z,4.16
2024-03-30T02:01:26.253Z,4.12
2024-03-30T02:02:26.443Z,4.41
2024-03-30T02:03:26.340Z,3.64
2024-03-30T02:04:26.401Z,3.38
2024-03-30T02:05:26.438Z,3.48
2024-03-30T02:06:26.448Z,3.76
2024-03-30T02:07:26.499Z,3.38
2024-03-30T02:08:26.514Z,3.21
2024-03-30T02:09:26.567Z,3.51
2024-03-30T02:10:26.674Z,4.20
2024-03-30T02:11:26.561Z,3.12
2024-03-30T02:12:26.622Z,3.52
2024-03-30T02:13:26.662Z,3.67
2024-03-30T02:14:26.678Z,3.29
2024-03-30T02:15:26.699Z,2.88
2024-03-30T02:16:26.701Z,3.60
2024-03-30T02:17:26.864Z,3.01
2024-03-30T02:18:26.909Z,3.16
2024-03-30T02:19:26.840Z,3.16
2024-03-30T02:20:26.917Z,3.54
2024-03-30T02:21:26.914Z,3.64
2024-03-30T02:22:28.105Z,3.26
2024-03-30T02:23:26.920Z,3.40
2024-03-30T02:24:27.067Z,3.78
2024-03-30T02:25:27.071Z,3.54
2024-03-30T02:26:27.145Z,2.93
2024-03-30T02:27:27.208Z,2.99
2024-03-30T02:28:27.172Z,3.89
2024-03-30T02:29:27.203Z,3.53
2024-03-30T02:30:27.275Z,3.78
2024-03-30T02:31:27.215Z,4.06
2024-03-30T02:32:27.594Z,4.08
2024-03-30T02:33:27.331Z,3.43
2024-03-30T02:34:27.388Z,4.38
2024-03-30T02:35:27.358Z,3.57
2024-03-30T02:36:27.381Z,3.21
2024-03-30T02:37:27.434Z,3.59
2024-03-30T02:38:27.462Z,3.70
2024-03-30T02:39:27.488Z,4.16
2024-03-30T02:40:27.535Z,3.86
2024-03-30T02:41:27.589Z,3.88
2024-03-30T02:42:27.609Z,3.54
2024-03-30T02:43:27.609Z,3.59
2024-03-30T02:44:27.676Z,4.00
2024-03-30T02:45:27.686Z,3.68
2024-03-30T02:46:27.691Z,3.31
2024-03-30T02:47:27.760Z,3.72
2024-03-30T02:48:27.741Z,3.13
2024-03-30T02:49:27.860Z,3.86
2024-03-30T02:50:27.911Z,3.70
2024-03-30T02:51:27.858Z,3.28
2024-03-30T02:52:27.905Z,3.19
2024-03-30T02:53:27.935Z,3.18
2024-03-30T02:54:27.983Z,3.21
2024-03-30T02:55:28.023Z,3.06
2024-03-30T02:56:28.055Z,3.55
2024-03-30T02:57:28.085Z,3.52
2024-03-30T02:58:28.073Z,3.33
2024-03-30T02:59:28.090Z,3.75
2024-03-30T03:00:28.142Z,3.65
2024-03-30T03:01:28.145Z,3.30
2024-03-30T03:02:28.198Z,4.19
2024-03-30T03:03:28.209Z,4.19
2024-03-30T03:04:28.225Z,4.91
2024-03-30T03:05:28.333Z,3.69
2024-03-30T03:06:28.347Z,3.03
2024-03-30T03:07:28.447Z,2.82
2024-03-30T03:08:28.432Z,2.91
2024-03-30T03:09:28.413Z,3.62
2024-03-30T03:10:28.460Z,3.57
2024-03-30T03:11:28.527Z,3.95
2024-03-30T03:12:28.532Z,3.33
2024-03-30T03:13:28.635Z,3.02
2024-03-30T03:14:28.582Z,3.10
2024-03-30T03:15:28.682Z,3.22
2024-03-30T03:16:28.696Z,3.01
2024-03-30T03:17:28.777Z,3.27
2024-03-30T03:18:28.829Z,3.21
2024-03-30T03:19:28.831Z,3.09
2024-03-30T03:20:28.835Z,2.93
2024-03-30T03:21:28.857Z,3.41
2024-03-30T03:22:28.939Z,3.19
2024-03-30T03:23:28.861Z,3.62
2024-03-30T03:24:28.948Z,3.50
2024-03-30T03:25:28.983Z,2.99
2024-03-30T03:26:29.073Z,3.88
2024-03-30T03:27:29.061Z,3.46
2024-03-30T03:28:29.087Z,3.59
2024-03-30T03:29:29.114Z,3.43
2024-03-30T03:30:29.159Z,3.62
2024-03-30T03:31:29.203Z,3.35
2024-03-30T03:32:29.327Z,3.03
2024-03-30T03:33:29.304Z,3.47
2024-03-30T03:34:29.344Z,3.21
2024-03-30T03:35:29.387Z,2.67
2024-03-30T03:36:29.374Z,2.36
2024-03-30T03:37:29.550Z,3.18
2024-03-30T03:38:29.518Z,3.28
2024-03-30T03:39:29.576Z,3.42
2024-03-30T03:40:29.569Z,2.68
2024-03-30T03:41:29.579Z,3.07
2024-03-30T03:42:29.637Z,2.43
2024-03-30T03:43:29.655Z,2.08
2024-03-30T03:44:29.695Z,2.46
2024-03-30T03:45:31.918Z,2.32
2024-03-30T03:46:29.831Z,2.96
2024-03-30T03:47:29.724Z,3.02
2024-03-30T03:48:29.725Z,2.59
2024-03-30T03:49:29.699Z,2.56
2024-03-30T03:50:29.734Z,3.02
2024-03-30T03:51:29.712Z,2.54
2024-03-30T03:52:29.751Z,2.70
2024-03-30T03:53:29.826Z,2.58
2024-03-30T03:54:29.764Z,2.50
2024-03-30T03:55:29.790Z,2.18
2024-03-30T03:56:29.952Z,2.39
2024-03-30T03:57:29.795Z,2.38
2024-03-30T03:58:29.789Z,2.18
2024-03-30T03:59:29.796Z,2.56
2024-03-30T04:00:29.811Z,2.31
2024-03-30T04:01:30.422Z,3.26
2024-03-30T04:02:29.833Z,2.69
2024-03-30T04:03:29.830Z,2.92
2024-03-30T04:04:29.845Z,2.64
2024-03-30T04:05:29.736Z,3.05
2024-03-30T04:06:29.751Z,2.91
2024-03-30T04:07:29.856Z,2.43
2024-03-30T04:08:29.858Z,2.78
2024-03-30T04:09:29.763Z,2.68
2024-03-30T04:10:29.771Z,2.45
2024-03-30T04:11:29.781Z,2.63
2024-03-30T04:12:29.789Z,1.94
2024-03-30T04:13:29.787Z,2.69
2024-03-30T04:14:29.796Z,2.29
2024-03-30T04:15:29.815Z,2.31
2024-03-30T04:16:30.828Z,2.60
2024-03-30T04:17:29.821Z,2.68
2024-03-30T04:18:29.940Z,2.76
2024-03-30T04:19:29.832Z,2.42
2024-03-30T04:20:29.839Z,2.77
2024-03-30T04:21:29.846Z,2.98
2024-03-30T04:22:29.854Z,2.90
2024-03-30T04:23:29.841Z,2.46
2024-03-30T04:24:29.855Z,2.53
2024-03-30T04:25:29.870Z,3.07
2024-03-30T04:26:29.960Z,2.69
2024-03-30T04:27:29.987Z,2.51
2024-03-30T04:28:29.994Z,2.20
2024-03-30T04:29:30.012Z,2.28
2024-03-30T04:30:30.094Z,2.83
2024-03-30T04:31:30.116Z,2.79
2024-03-30T04:32:30.287Z,2.82
2024-03-30T04:33:30.238Z,2.20
2024-03-30T04:34:30.242Z,2.35
2024-03-30T04:35:30.350Z,2.78
2024-03-30T04:36:30.352Z,2.92
2024-03-30T04:37:30.376Z,2.67
2024-03-30T04:38:30.445Z,2.64
2024-03-30T04:39:30.465Z,3.26
2024-03-30T04:40:30.435Z,2.61
2024-03-30T04:41:30.495Z,2.85
2024-03-30T04:42:38.079Z,2.47
2024-03-30T04:43:38.098Z,2.37
2024-03-30T04:44:38.034Z,2.33
2024-03-30T04:45:38.108Z,2.41
2024-03-30T04:46:38.149Z,2.88
2024-03-30T04:47:38.145Z,3.09
2024-03-30T04:48:38.101Z,3.28
2024-03-30T04:49:38.075Z,3.20
2024-03-30T04:50:38.108Z,2.69
2024-03-30T04:51:38.062Z,2.82
2024-03-30T04:52:38.052Z,3.00
2024-03-30T04:53:38.168Z,2.62
2024-03-30T04:54:38.074Z,2.61
2024-03-30T04:55:38.068Z,2.44
2024-03-30T04:56:38.083Z,2.73
2024-03-30T04:57:38.098Z,3.03
2024-03-30T04:58:38.115Z,2.70
2024-03-30T04:59:38.097Z,2.43
2024-03-30T05:00:38.114Z,2.86
2024-03-30T05:01:38.090Z,2.39
2024-03-30T05:02:38.118Z,2.73
2024-03-30T05:03:38.053Z,2.51
2024-03-30T05:04:38.125Z,2.43
2024-03-30T05:05:38.075Z,3.26
2024-03-30T05:06:38.127Z,3.73
2024-03-30T05:07:38.137Z,2.84
2024-03-30T05:08:38.176Z,2.79
2024-03-30T05:09:38.092Z,2.76
2024-03-30T05:10:38.104Z,2.11
2024-03-30T05:11:38.107Z,2.37
2024-03-30T05:12:38.268Z,2.49
2024-03-30T05:13:38.114Z,2.66
2024-03-30T05:14:38.086Z,2.87
2024-03-30T05:15:38.129Z,2.41
2024-03-30T05:16:40.302Z,2.79
2024-03-30T05:17:38.216Z,3.62
2024-03-30T05:18:38.203Z,2.78
2024-03-30T05:19:38.229Z,3.04
2024-03-30T05:20:38.240Z,2.96
2024-03-30T05:21:38.266Z,3.02
2024-03-30T05:22:38.293Z,3.29
2024-03-30T05:23:38.491Z,3.15
2024-03-30T05:24:38.480Z,2.72
2024-03-30T05:25:38.471Z,2.93
2024-03-30T05:26:38.485Z,2.99
2024-03-30T05:27:38.606Z,3.06
2024-03-30T05:28:38.521Z,2.42
2024-03-30T05:29:38.580Z,2.76
2024-03-30T05:30:38.607Z,3.16
2024-03-30T05:31:38.655Z,2.82
2024-03-30T05:32:38.743Z,2.85
2024-03-30T05:33:38.764Z,2.87
2024-03-30T05:34:38.842Z,2.58
2024-03-30T05:35:38.863Z,2.26
2024-03-30T05:36:38.968Z,2.79
2024-03-30T05:37:38.885Z,2.53
2024-03-30T05:38:38.983Z,2.88
2024-03-30T05:39:38.996Z,2.81
2024-03-30T05:40:38.998Z,2.62
2024-03-30T05:41:39.061Z,3.33
2024-03-30T05:42:39.091Z,3.24
2024-03-30T05:43:39.233Z,3.24
2024-03-30T05:44:39.139Z,2.52
2024-03-30T05:45:39.228Z,3.02
2024-03-30T05:46:39.375Z,3.21
2024-03-30T05:47:39.373Z,3.21
2024-03-30T05:48:39.276Z,3.11
2024-03-30T05:49:39.357Z,3.44
2024-03-30T05:50:39.383Z,3.75
2024-03-30T05:51:39.485Z,2.92
2024-03-30T05:52:39.506Z,3.10
2024-03-30T05:53:39.494Z,2.64
2024-03-30T05:54:39.512Z,3.48
2024-03-30T05:55:39.603Z,2.94
2024-03-30T05:56:39.613Z,2.66
2024-03-30T05:57:39.598Z,3.09
2024-03-30T05:58:39.635Z,3.45
2024-03-30T05:59:39.637Z,3.19
2024-03-30T06:00:39.721Z,2.67
2024-03-30T06:01:39.748Z,2.65
2024-03-30T06:02:39.754Z,3.40
2024-03-30T06:03:39.824Z,3.08
2024-03-30T06:04:39.859Z,2.65
2024-03-30T06:05:39.876Z,2.66
2024-03-30T06:06:39.892Z,3.15
2024-03-30T06:07:40.008Z,2.76
2024-03-30T06:08:39.951Z,2.79
2024-03-30T06:09:40.017Z,2.60
2024-03-30T06:10:40.004Z,2.49
2024-03-30T06:11:40.042Z,3.23
2024-03-30T06:12:40.074Z,2.73
2024-03-30T06:13:41.059Z,3.16
2024-03-30T06:14:40.138Z,2.63
2024-03-30T06:15:40.156Z,2.81
2024-03-30T06:16:40.218Z,2.60
2024-03-30T06:17:40.261Z,2.73
2024-03-30T06:18:40.324Z,2.69
2024-03-30T06:19:40.330Z,2.56
2024-03-30T06:20:40.387Z,3.33
2024-03-30T06:21:40.394Z,3.25
2024-03-30T06:22:40.472Z,3.14
2024-03-30T06:23:40.497Z,3.32
2024-03-30T06:24:40.469Z,3.23
2024-03-30T06:25:40.550Z,3.05
2024-03-30T06:26:40.598Z,3.12
2024-03-30T06:27:40.651Z,2.80
2024-03-30T06:28:40.693Z,4.59
2024-03-30T06:29:40.748Z,3.33
2024-03-30T06:30:40.715Z,3.13
2024-03-30T06:31:40.784Z,3.09
2024-03-30T06:32:40.822Z,2.35
2024-03-30T06:33:40.997Z,3.21
2024-03-30T06:34:43.159Z,3.58
2024-03-30T06:35:40.963Z,3.65
2024-03-30T06:36:40.964Z,3.37
2024-03-30T06:37:41.045Z,3.69
2024-03-30T06:38:41.533Z,3.64
2024-03-30T06:39:41.030Z,3.57
2024-03-30T06:40:41.088Z,2.96
2024-03-30T06:41:41.165Z,2.74
2024-03-30T06:42:41.264Z,2.84
2024-03-30T06:43:41.260Z,3.16
2024-03-30T06:44:41.279Z,3.07
2024-03-30T06:45:41.304Z,3.00
2024-03-30T06:46:41.342Z,3.15
2024-03-30T06:47:41.419Z,3.03
2024-03-30T06:48:41.407Z,3.01
2024-03-30T06:49:41.416Z,3.40
2024-03-30T06:50:41.525Z,3.15
2024-03-30T06:51:41.543Z,3.56
2024-03-30T06:52:41.559Z,3.51
2024-03-30T06:53:41.644Z,3.11
2024-03-30T06:54:41.680Z,3.24
2024-03-30T06:55:41.698Z,4.15
2024-03-30T06:56:41.788Z,3.36
2024-03-30T06:57:41.835Z,3.55
2024-03-30T06:58:41.916Z,3.75
2024-03-30T06:59:41.841Z,3.02
2024-03-30T07:00:41.937Z,3.39
2024-03-30T07:01:41.949Z,3.35
2024-03-30T07:02:41.964Z,3.36
2024-03-30T07:03:42.125Z,3.29
2024-03-30T07:04:42.062Z,3.39
2024-03-30T07:05:42.165Z,3.24
2024-03-30T07:06:42.175Z,3.46
2024-03-30T07:07:42.195Z,3.19
2024-03-30T07:08:42.288Z,3.98
2024-03-30T07:09:42.284Z,3.48
2024-03-30T07:10:42.404Z,3.22
2024-03-30T07:11:42.390Z,2.80
2024-03-30T07:12:42.412Z,3.20
2024-03-30T07:13:42.424Z,3.12
2024-03-30T07:14:42.470Z,3.06
2024-03-30T07:15:42.538Z,3.53
2024-03-30T07:17:12.149Z,3.15
2024-03-30T07:17:43.475Z,3.50
2024-03-30T07:18:42.554Z,2.93
2024-03-30T07:19:42.556Z,2.38
2024-03-30T07:20:42.586Z,2.94
2024-03-30T07:21:42.570Z,3.37
2024-03-30T07:22:42.592Z,3.81
2024-03-30T07:23:42.593Z,3.27
2024-03-30T07:24:42.524Z,3.51
2024-03-30T07:25:42.607Z,2.88
2024-03-30T07:26:42.518Z,3.23
2024-03-30T07:27:55.350Z,5.37
2024-03-30T07:28:55.318Z,4.13
2024-03-30T07:29:55.415Z,3.92
2024-03-30T07:30:55.349Z,3.84
2024-03-30T07:31:55.344Z,3.45
2024-03-30T07:32:55.378Z,3.76
2024-03-30T07:33:55.440Z,3.67
2024-03-30T07:34:55.375Z,3.44
2024-03-30T07:35:55.363Z,3.56
2024-03-30T07:36:55.388Z,4.01
2024-03-30T07:37:55.326Z,3.73
2024-03-30T07:38:55.395Z,3.19
2024-03-30T07:39:55.332Z,3.17
2024-03-30T07:40:55.374Z,3.17
2024-03-30T07:41:55.396Z,3.70
2024-03-30T07:42:55.340Z,3.89
2024-03-30T07:43:55.361Z,3.28
2024-03-30T07:44:55.325Z,3.41
2024-03-30T07:45:55.438Z,3.49
2024-03-30T07:46:55.388Z,3.54
2024-03-30T07:47:55.445Z,3.27
2024-03-30T07:48:55.443Z,3.51
2024-03-30T07:49:56.001Z,3.89
2024-03-30T07:50:55.351Z,3.56
2024-03-30T07:51:55.392Z,2.91
2024-03-30T07:52:55.382Z,3.85
2024-03-30T07:53:55.504Z,3.54
2024-03-30T07:54:55.394Z,3.81
2024-03-30T07:55:55.400Z,3.75
2024-03-30T07:56:55.414Z,3.49
2024-03-30T07:57:55.407Z,3.68
2024-03-30T07:58:56.666Z,4.44
2024-03-30T07:59:55.453Z,4.41
2024-03-30T08:00:55.458Z,4.00
2024-03-30T08:01:55.491Z,4.16
2024-03-30T08:02:55.563Z,3.72
2024-03-30T08:03:55.605Z,3.08
2024-03-30T08:04:55.601Z,3.34
2024-03-30T08:05:55.687Z,4.42
2024-03-30T08:06:55.614Z,3.83
2024-03-30T08:07:55.683Z,4.05
2024-03-30T08:08:55.784Z,3.00
2024-03-30T08:09:55.802Z,3.76
2024-03-30T08:10:55.813Z,3.99
2024-03-30T08:11:55.836Z,4.00
2024-03-30T08:12:55.875Z,4.23
2024-03-30T08:13:55.933Z,3.28
2024-03-30T08:14:55.988Z,4.06
2024-03-30T08:15:56.037Z,3.71
2024-03-30T08:16:56.148Z,3.23
2024-03-30T08:17:56.079Z,3.34
2024-03-30T08:18:56.172Z,3.74
2024-03-30T08:19:56.164Z,4.11
2024-03-30T08:20:56.184Z,4.34
2024-03-30T08:21:56.228Z,3.75
2024-03-30T08:22:56.328Z,3.57
2024-03-30T08:23:56.343Z,3.86
2024-03-30T08:24:56.406Z,4.34
2024-03-30T08:25:56.413Z,4.32
2024-03-30T08:26:56.444Z,4.17
2024-03-30T08:27:56.482Z,3.28
2024-03-30T08:28:57.374Z,4.80
2024-03-30T08:29:56.548Z,4.17
2024-03-30T08:30:56.560Z,4.73
2024-03-30T08:31:56.600Z,4.07
2024-03-30T08:32:56.613Z,3.63
2024-03-30T08:33:56.686Z,3.56
2024-03-30T08:34:56.693Z,4.02
2024-03-30T08:35:56.723Z,3.73
2024-03-30T08:36:56.824Z,4.07
2024-03-30T08:37:56.843Z,4.32
2024-03-30T08:38:56.852Z,4.29
2024-03-30T08:39:56.927Z,4.46
2024-03-30T08:40:56.916Z,4.47
2024-03-30T08:41:56.881Z,3.84
2024-03-30T08:42:56.949Z,4.25
2024-03-30T08:43:57.059Z,3.95
2024-03-30T08:44:57.076Z,5.03
2024-03-30T08:45:57.074Z,4.52
2024-03-30T08:46:57.172Z,4.28
2024-03-30T08:47:57.195Z,3.95
2024-03-30T08:48:57.301Z,4.00
2024-03-30T08:49:57.244Z,3.78
2024-03-30T08:50:57.323Z,4.10
2024-03-30T08:51:57.419Z,3.72
2024-03-30T08:52:57.370Z,3.70
2024-03-30T08:53:57.530Z,3.69
2024-03-30T08:54:57.547Z,4.58
2024-03-30T08:55:57.484Z,3.75
2024-03-30T08:56:57.560Z,4.44
2024-03-30T08:57:57.591Z,4.05
2024-03-30T08:58:57.683Z,3.93
2024-03-30T08:59:58.081Z,3.92
2024-03-30T09:00:57.703Z,4.83
2024-03-30T09:01:57.740Z,4.88
2024-03-30T09:02:57.737Z,4.09
2024-03-30T09:03:57.931Z,7.16
2024-03-30T09:04:58.007Z,5.21
2024-03-30T09:05:57.920Z,4.11
2024-03-30T09:06:58.027Z,3.54
2024-03-30T09:07:57.948Z,4.55
2024-03-30T09:08:58.065Z,4.40
2024-03-30T09:09:58.149Z,4.75
2024-03-30T09:10:58.073Z,4.28
2024-03-30T09:11:58.164Z,3.99
2024-03-30T09:12:58.185Z,4.03
2024-03-30T09:13:58.204Z,3.78
2024-03-30T09:14:58.213Z,4.62
2024-03-30T09:15:59.838Z,4.46
2024-03-30T09:16:58.300Z,4.89
2024-03-30T09:17:58.321Z,4.69
2024-03-30T09:18:58.320Z,3.55
2024-03-30T09:19:58.324Z,3.58
2024-03-30T09:20:58.343Z,4.04
2024-03-30T09:21:58.330Z,4.46
2024-03-30T09:22:58.345Z,5.29
2024-03-30T09:23:58.395Z,4.40
2024-03-30T09:24:58.300Z,3.94
2024-03-30T09:25:58.275Z,4.36
2024-03-30T09:26:58.276Z,4.96
2024-03-30T09:27:58.279Z,4.75
2024-03-30T09:28:58.366Z,3.76
2024-03-30T09:29:58.299Z,4.13
2024-03-30T09:30:58.403Z,4.26
2024-03-30T09:31:58.298Z,4.00
2024-03-30T09:32:58.318Z,3.97
2024-03-30T09:33:58.312Z,4.20
2024-03-30T09:34:58.320Z,4.63
2024-03-30T09:35:58.312Z,4.27
2024-03-30T09:36:59.890Z,3.59
2024-03-30T09:37:58.295Z,3.62
2024-03-30T09:38:58.371Z,4.36
2024-03-30T09:39:58.293Z,4.85
2024-03-30T09:40:58.287Z,3.48
2024-03-30T09:41:58.382Z,4.06
2024-03-30T09:42:58.389Z,4.24
2024-03-30T09:43:58.373Z,4.35
2024-03-30T09:44:58.319Z,3.86
2024-03-30T09:45:58.318Z,4.17
2024-03-30T09:46:58.320Z,3.78
2024-03-30T09:47:58.334Z,4.76
2024-03-30T09:48:58.323Z,4.67
2024-03-30T09:49:58.315Z,4.35
2024-03-30T09:50:58.319Z,4.26
2024-03-30T09:51:58.463Z,4.33
2024-03-30T09:52:58.878Z,5.31
2024-03-30T09:53:59.285Z,4.42
2024-03-30T09:54:58.372Z,4.56
2024-03-30T09:55:58.282Z,3.12
2024-03-30T09:56:58.388Z,3.75
2024-03-30T09:57:58.386Z,3.71
2024-03-30T09:58:58.400Z,3.11
2024-03-30T09:59:58.349Z,3.52
2024-03-30T10:00:58.403Z,3.94
2024-03-30T10:01:58.320Z,3.97
2024-03-30T10:02:58.322Z,5.44
2024-03-30T10:04:01.454Z,4.08
2024-03-30T10:04:58.327Z,3.89
2024-03-30T10:05:58.316Z,3.83
2024-03-30T10:06:58.326Z,4.29
2024-03-30T10:07:58.344Z,3.85
2024-03-30T10:08:58.355Z,4.66
2024-03-30T10:09:58.349Z,4.17
2024-03-30T10:10:59.308Z,3.70
2024-03-30T10:11:58.359Z,4.89
2024-03-30T10:12:58.395Z,5.18
2024-03-30T10:14:06.986Z,4.41
2024-03-30T10:14:59.429Z,3.82
2024-03-30T10:15:59.249Z,4.32
2024-03-30T10:16:58.403Z,4.22
2024-03-30T10:17:58.422Z,4.24
2024-03-30T10:18:58.391Z,4.31
2024-03-30T10:19:58.386Z,3.80
2024-03-30T10:20:58.339Z,4.14
2024-03-30T10:21:58.393Z,4.54
2024-03-30T10:22:58.351Z,3.87
2024-03-30T10:23:58.867Z,3.68
2024-03-30T10:24:58.404Z,4.34
2024-03-30T10:25:58.367Z,4.35
2024-03-30T10:26:58.359Z,4.12
2024-03-30T10:27:58.438Z,3.76
2024-03-30T10:28:58.480Z,3.82
2024-03-30T10:29:58.505Z,3.57
2024-03-30T10:30:58.611Z,3.90
2024-03-30T10:31:58.513Z,4.09
2024-03-30T10:32:58.633Z,3.66
2024-03-30T10:33:58.674Z,3.67
2024-03-30T10:34:58.732Z,3.36
2024-03-30T10:35:58.724Z,5.12
2024-03-30T10:36:58.706Z,3.16
2024-03-30T10:37:58.765Z,3.36
2024-03-30T10:38:58.790Z,3.11
2024-03-30T10:39:58.824Z,3.69
2024-03-30T10:40:58.844Z,3.54
2024-03-30T10:41:58.899Z,3.98
2024-03-30T10:42:58.895Z,3.92
2024-03-30T10:43:59.002Z,3.29
2024-03-30T10:44:59.020Z,3.32
2024-03-30T10:45:59.024Z,4.18
2024-03-30T10:46:59.043Z,3.65
2024-03-30T10:47:59.134Z,3.84
2024-03-30T10:48:59.150Z,4.17
2024-03-30T10:49:59.228Z,3.92
2024-03-30T10:50:59.160Z,4.16
2024-03-30T10:51:59.237Z,3.40
2024-03-30T10:52:59.283Z,3.48
2024-03-30T10:53:59.390Z,3.86
2024-03-30T10:54:59.288Z,3.51
2024-03-30T10:55:59.352Z,3.78
2024-03-30T10:56:59.412Z,4.57
2024-03-30T10:57:59.442Z,3.61
2024-03-30T10:58:59.533Z,3.74
2024-03-30T10:59:59.531Z,3.05
2024-03-30T11:00:59.642Z,3.75
2024-03-30T11:01:59.648Z,3.87
2024-03-30T11:02:59.693Z,3.61
2024-03-30T11:03:59.762Z,4.21
2024-03-30T11:04:59.791Z,3.59
2024-03-30T11:05:59.778Z,4.57
2024-03-30T11:06:59.828Z,3.33
2024-03-30T11:08:02.897Z,3.81
2024-03-30T11:08:59.949Z,3.79
2024-03-30T11:09:59.910Z,3.81
2024-03-30T11:10:59.963Z,3.35
2024-03-30T11:11:59.950Z,4.03
2024-03-30T11:12:59.903Z,4.04
2024-03-30T11:13:59.938Z,3.80
2024-03-30T11:14:59.927Z,4.16
2024-03-30T11:15:59.890Z,4.21
2024-03-30T11:16:59.985Z,4.83
2024-03-30T11:17:59.906Z,3.71
2024-03-30T11:18:59.975Z,4.21
2024-03-30T11:19:59.995Z,3.93
2024-03-30T11:20:59.945Z,3.55
2024-03-30T11:21:59.938Z,3.83
2024-03-30T11:23:00.060Z,3.53
2024-03-30T11:24:00.304Z,4.27
2024-03-30T11:25:00.037Z,4.17
2024-03-30T11:25:59.935Z,4.40
2024-03-30T11:26:59.953Z,4.20
2024-03-30T11:27:59.960Z,4.07
2024-03-30T11:29:00.058Z,4.41
2024-03-30T11:29:59.973Z,3.83
2024-03-30T11:30:59.938Z,4.56
2024-03-30T11:32:00.029Z,4.19
2024-03-30T11:32:59.995Z,3.63
2024-03-30T11:33:59.996Z,3.74
2024-03-30T11:35:00.020Z,4.15
2024-03-30T11:35:59.947Z,4.12
2024-03-30T11:37:00.024Z,3.19
2024-03-30T11:37:59.920Z,3.65
2024-03-30T11:39:02.005Z,4.38
2024-03-30T11:40:00.239Z,3.90
2024-03-30T11:40:59.946Z,4.70
2024-03-30T11:42:00.074Z,4.14
2024-03-30T11:42:59.950Z,3.81
2024-03-30T11:44:00.074Z,3.53
2024-03-30T11:45:00.002Z,3.66
2024-03-30T11:45:59.985Z,4.35
2024-03-30T11:47:00.060Z,4.38
2024-03-30T11:48:00.096Z,3.97
2024-03-30T11:49:00.105Z,4.33
2024-03-30T11:50:00.124Z,5.36
2024-03-30T11:51:00.112Z,3.75
2024-03-30T11:52:00.147Z,3.72
2024-03-30T11:53:00.147Z,3.94
2024-03-30T11:54:00.237Z,4.01
2024-03-30T11:55:00.235Z,3.60
2024-03-30T11:56:00.358Z,3.98
2024-03-30T11:57:04.520Z,3.83
2024-03-30T11:58:01.298Z,4.26
2024-03-30T11:59:00.385Z,4.08
2024-03-30T12:00:00.390Z,3.80
2024-03-30T12:01:00.381Z,4.29
2024-03-30T12:02:00.393Z,3.84
2024-03-30T12:03:00.393Z,3.50
2024-03-30T12:04:00.303Z,3.62
2024-03-30T12:05:01.492Z,3.55
2024-03-30T12:06:00.325Z,3.37
2024-03-30T12:07:00.309Z,3.34
2024-03-30T12:08:00.313Z,3.56
2024-03-30T12:09:00.434Z,3.62
2024-03-30T12:10:00.372Z,3.59
2024-03-30T12:11:01.769Z,4.01
2024-03-30T12:12:00.625Z,3.56
2024-03-30T12:13:00.678Z,3.45
2024-03-30T12:14:00.778Z,3.10
2024-03-30T12:15:00.789Z,3.95
2024-03-30T12:16:00.796Z,4.01
2024-03-30T12:17:00.790Z,3.68
2024-03-30T12:18:00.794Z,3.27
2024-03-30T12:19:00.907Z,3.32
2024-03-30T12:20:00.846Z,2.95
2024-03-30T12:21:00.921Z,3.65
2024-03-30T12:22:00.931Z,2.82
2024-03-30T12:23:01.030Z,2.72
2024-03-30T12:24:01.035Z,3.22
2024-03-30T12:25:01.097Z,3.46
2024-03-30T12:26:01.071Z,4.05
2024-03-30T12:27:01.168Z,3.13
2024-03-30T12:28:01.266Z,3.55
2024-03-30T12:29:01.228Z,3.86
2024-03-30T12:30:01.219Z,2.97
2024-03-30T12:31:01.247Z,2.63
2024-03-30T12:32:01.301Z,3.35
2024-03-30T12:33:01.306Z,2.76
2024-03-30T12:34:01.437Z,2.85
2024-03-30T12:35:01.420Z,2.86
2024-03-30T12:36:01.435Z,3.25
2024-03-30T12:37:02.375Z,2.78
2024-03-30T12:38:01.474Z,2.55
2024-03-30T12:39:03.450Z,2.51
2024-03-30T12:40:01.707Z,2.95
2024-03-30T12:41:01.569Z,3.57
2024-03-30T12:42:01.572Z,3.09
2024-03-30T12:43:01.590Z,2.98
2024-03-30T12:44:01.587Z,2.55
2024-03-30T12:45:01.589Z,2.61
2024-03-30T12:46:01.512Z,2.47
2024-03-30T12:47:01.532Z,2.67
2024-03-30T12:48:01.517Z,2.81
2024-03-30T12:49:01.647Z,3.07
2024-03-30T12:50:01.567Z,2.80
2024-03-30T12:51:01.559Z,2.75
2024-03-30T12:52:01.553Z,2.91
2024-03-30T12:53:01.552Z,2.96
2024-03-30T12:54:01.585Z,3.61
2024-03-30T12:55:01.560Z,2.98
2024-03-30T12:56:01.572Z,3.01
2024-03-30T12:57:01.571Z,2.94
2024-03-30T12:58:01.579Z,2.66
2024-03-30T12:59:01.590Z,3.14
2024-03-30T13:00:01.566Z,2.29
2024-03-30T13:01:01.609Z,2.88
2024-03-30T13:02:01.529Z,2.56
2024-03-30T13:03:01.550Z,3.16
2024-03-30T13:04:01.620Z,3.41
2024-03-30T13:05:01.527Z,2.86
2024-03-30T13:06:01.542Z,2.51
2024-03-30T13:07:08.337Z,2.89
2024-03-30T13:08:02.577Z,2.49
2024-03-30T13:09:01.984Z,2.50
2024-03-30T13:10:01.586Z,2.29
2024-03-30T13:11:01.602Z,2.16
2024-03-30T13:12:01.592Z,1.89
2024-03-30T13:13:01.591Z,1.93
2024-03-30T13:14:01.582Z,2.59
2024-03-30T13:15:01.603Z,1.83
2024-03-30T13:16:01.595Z,2.08
2024-03-30T13:17:01.616Z,1.76
2024-03-30T13:18:01.605Z,1.76
2024-03-30T13:19:01.628Z,1.94